GRZ574 Details

Departure: (PACD)
Arrival: (PASD)
Route: ELF G12 HBT


Current Weather Information
PACD 250453Z AUTO 26009KT 10SM -RA SCT041 SCT048 OVC060 12/09 A2991 RMK AO2 SLP127 P0001 T01220094 TSNO
PASD 250456Z AUTO 27006KT 10SM CLR 15/11 A2990 RMK AO2 SLP127 T01500111